Time;durP1;ratioP1;P1;durP2;ratioP2;P2;SDS_P1;SDS_P2;PMS_P1;PMS_P2;Temp;Humidity;BMP_temperature;BMP_pressure;BME280_temperature;BME280_humidity;BME280_pressure;Samples;Min_cycle;Max_cycle;Signal;HPM_P1;HPM_P2
2021/08/10 00:01:59;;;;;;;3.57;2.77;;;16.60;99.90;;;;;;5088750;28;20462;-74
2021/08/10 00:04:25;;;;;;;2.93;2.63;;;16.60;99.90;;;;;;5088397;28;20458;-76
2021/08/10 00:06:52;;;;;;;3.40;2.50;;;16.60;99.90;;;;;;5089304;28;20458;-74
2021/08/10 00:09:19;;;;;;;4.50;2.60;;;16.60;99.90;;;;;;5088034;28;20450;-74
2021/08/10 00:11:46;;;;;;;3.03;2.57;;;16.60;99.90;;;;;;5087717;28;20542;-74
2021/08/10 00:14:15;;;;;;;3.30;2.37;;;16.60;99.90;;;;;;5087832;28;20504;-75
2021/08/10 00:16:42;;;;;;;5.33;3.37;;;16.60;99.90;;;;;;5088703;28;20458;-74
2021/08/10 00:19:09;;;;;;;4.33;2.67;;;16.70;99.90;;;;;;5087948;28;20462;-74
2021/08/10 00:21:36;;;;;;;2.80;2.60;;;16.70;99.90;;;;;;5086360;28;20465;-73
2021/08/10 00:24:03;;;;;;;3.33;2.77;;;16.60;99.90;;;;;;5085084;28;20455;-75
2021/08/10 00:26:29;;;;;;;7.20;3.40;;;16.60;99.90;;;;;;5084661;28;20465;-74
2021/08/10 00:28:56;;;;;;;3.80;2.70;;;16.60;99.90;;;;;;5083816;28;20465;-74
2021/08/10 00:31:24;;;;;;;3.47;2.50;;;16.60;99.90;;;;;;5084351;28;20462;-74
2021/08/10 00:33:51;;;;;;;6.30;2.60;;;16.60;99.90;;;;;;5083368;28;20802;-74
2021/08/10 00:36:18;;;;;;;3.30;2.97;;;16.60;99.90;;;;;;5082140;28;20462;-74
2021/08/10 00:38:45;;;;;;;2.57;2.37;;;16.60;99.90;;;;;;5083413;28;20474;-74
2021/08/10 00:41:12;;;;;;;3.63;3.27;;;16.60;99.90;;;;;;5082373;28;20575;-73
2021/08/10 00:43:40;;;;;;;3.90;3.00;;;16.60;99.90;;;;;;5082865;28;20447;-73
2021/08/10 00:46:09;;;;;;;3.87;2.73;;;16.60;99.90;;;;;;5083343;28;20465;-75
2021/08/10 00:48:37;;;;;;;2.90;2.70;;;16.60;99.90;;;;;;5083358;28;20458;-75
2021/08/10 00:51:05;;;;;;;3.90;2.70;;;16.50;99.90;;;;;;5083193;28;20454;-74
2021/08/10 00:53:33;;;;;;;4.90;3.13;;;16.50;99.90;;;;;;5083231;28;20901;-73
2021/08/10 00:56:03;;;;;;;4.57;2.80;;;16.50;99.90;;;;;;5083892;28;20470;-73
2021/08/10 00:58:30;;;;;;;5.30;3.47;;;16.50;99.90;;;;;;5083582;28;20455;-74
2021/08/10 01:00:57;;;;;;;3.73;3.10;;;16.50;99.90;;;;;;5083936;28;20489;-74
2021/08/10 01:03:24;;;;;;;4.87;3.07;;;16.50;99.90;;;;;;5083069;28;20919;-73
2021/08/10 01:05:53;;;;;;;3.17;2.87;;;16.50;99.90;;;;;;5083786;28;20458;-73
2021/08/10 01:08:35;;;;;;;3.00;2.70;;;16.50;99.90;;;;;;5083266;28;20450;-74
2021/08/10 01:11:10;;;;;;;10.67;3.60;;;16.50;99.90;;;;;;5082960;28;20442;-73
2021/08/10 01:13:39;;;;;;;4.03;2.47;;;16.50;99.90;;;;;;5083460;28;20438;-74
2021/08/10 01:16:17;;;;;;;5.00;3.20;;;16.50;99.90;;;;;;5084129;28;20830;-73
2021/08/10 01:18:54;;;;;;;4.00;3.17;;;16.50;99.90;;;;;;5083556;28;20446;-73
2021/08/10 01:21:26;;;;;;;3.80;3.43;;;16.50;99.90;;;;;;5084287;28;20748;-73
2021/08/10 01:24:03;;;;;;;3.30;2.97;;;16.40;99.90;;;;;;5083342;28;20435;-73
2021/08/10 01:26:50;;;;;;;5.53;3.00;;;16.40;99.90;;;;;;5084855;28;20439;-74
2021/08/10 01:29:21;;;;;;;3.37;3.03;;;16.40;99.90;;;;;;5084628;28;20445;-74
2021/08/10 01:31:50;;;;;;;6.10;3.33;;;16.40;99.90;;;;;;5084336;28;20484;-75
2021/08/10 01:34:24;;;;;;;3.33;2.80;;;16.50;99.90;;;;;;5083550;28;20470;-75
2021/08/10 01:36:55;;;;;;;7.17;3.60;;;16.50;99.90;;;;;;5083448;28;20441;-75
2021/08/10 01:39:25;;;;;;;4.00;2.97;;;16.50;99.90;;;;;;5083817;28;20478;-75
2021/08/10 01:41:52;;;;;;;3.23;2.93;;;16.50;99.90;;;;;;5084931;28;20454;-74
2021/08/10 01:44:25;;;;;;;4.33;3.40;;;16.50;99.90;;;;;;5084265;28;20941;-74
2021/08/10 01:46:53;;;;;;;3.23;2.63;;;16.50;99.90;;;;;;5083931;28;20514;-75
2021/08/10 01:49:21;;;;;;;2.60;2.40;;;16.50;99.90;;;;;;5083957;28;20464;-75
2021/08/10 01:51:49;;;;;;;3.53;2.87;;;16.50;99.90;;;;;;5083513;28;20457;-75
2021/08/10 01:54:17;;;;;;;9.53;2.80;;;16.50;99.90;;;;;;5083949;28;20477;-74
2021/08/10 01:56:43;;;;;;;5.87;3.00;;;16.50;99.90;;;;;;5074981;28;20468;-74
2021/08/10 01:59:10;;;;;;;4.37;3.00;;;16.40;99.90;;;;;;5074571;28;20462;-74
2021/08/10 02:01:41;;;;;;;3.10;2.80;;;16.40;99.90;;;;;;5074526;28;20480;-72
2021/08/10 02:04:10;;;;;;;3.67;3.03;;;16.40;99.90;;;;;;5074819;28;20453;-74
2021/08/10 02:06:38;;;;;;;5.70;3.13;;;16.30;99.90;;;;;;5074640;28;20477;-74
2021/08/10 02:09:06;;;;;;;3.40;3.10;;;16.30;99.90;;;;;;5074733;28;20507;-74
2021/08/10 02:11:34;;;;;;;3.30;3.00;;;16.30;99.90;;;;;;5074172;28;20899;-74
2021/08/10 02:14:03;;;;;;;10.60;3.43;;;16.30;99.90;;;;;;5074613;28;20481;-74
2021/08/10 02:16:32;;;;;;;3.50;3.10;;;16.30;99.90;;;;;;5074542;28;20458;-74
2021/08/10 02:18:58;;;;;;;3.47;2.80;;;16.20;99.90;;;;;;5074268;28;20464;-74
2021/08/10 02:21:31;;;;;;;3.10;2.80;;;16.20;99.90;;;;;;5074437;28;20785;-74
2021/08/10 02:24:03;;;;;;;3.97;2.97;;;16.20;99.90;;;;;;5074738;28;20829;-74
2021/08/10 02:26:32;;;;;;;3.33;3.03;;;16.20;99.90;;;;;;5074245;28;20899;-74
2021/08/10 02:29:01;;;;;;;3.70;3.30;;;16.30;99.90;;;;;;5074237;28;20465;-74
2021/08/10 02:31:29;;;;;;;4.73;3.37;;;16.30;99.90;;;;;;5074159;28;20458;-74
2021/08/10 02:33:56;;;;;;;4.60;3.37;;;16.30;99.90;;;;;;5074102;28;20489;-74
2021/08/10 02:36:24;;;;;;;4.63;3.23;;;16.30;99.90;;;;;;5074475;28;20523;-74
2021/08/10 02:38:53;;;;;;;5.30;3.73;;;16.30;99.90;;;;;;5074149;28;20480;-74
2021/08/10 02:41:21;;;;;;;5.80;3.40;;;16.30;99.90;;;;;;5074276;28;20442;-74
2021/08/10 02:43:48;;;;;;;3.60;3.20;;;16.30;99.90;;;;;;5074069;28;20786;-74
2021/08/10 02:46:15;;;;;;;3.90;2.90;;;16.30;99.90;;;;;;5074217;28;20465;-74
2021/08/10 02:48:42;;;;;;;4.03;3.63;;;16.30;99.90;;;;;;5073962;28;20469;-74
2021/08/10 02:51:08;;;;;;;3.23;2.83;;;16.30;99.90;;;;;;5074486;28;20472;-74
2021/08/10 02:53:36;;;;;;;4.13;3.33;;;16.30;99.90;;;;;;5074216;28;20470;-74
2021/08/10 02:56:10;;;;;;;4.60;3.00;;;16.20;99.90;;;;;;5073609;28;20488;-73
2021/08/10 02:58:45;;;;;;;5.23;3.77;;;16.20;99.90;;;;;;5074146;28;20553;-75
2021/08/10 03:01:17;;;;;;;3.30;3.00;;;16.10;99.90;;;;;;5077689;28;20446;-74
2021/08/10 03:03:47;;;;;;;6.13;3.33;;;16.10;99.90;;;;;;5078023;28;20438;-74
2021/08/10 03:06:14;;;;;;;4.10;3.67;;;16.10;99.90;;;;;;5077698;28;20450;-74
2021/08/10 03:08:46;;;;;;;3.80;3.50;;;16.10;99.90;;;;;;5077965;28;20812;-73
2021/08/10 03:11:16;;;;;;;3.40;3.07;;;16.10;99.90;;;;;;5077826;28;20769;-73
2021/08/10 03:13:46;;;;;;;6.43;3.10;;;16.10;99.90;;;;;;5078043;28;20458;-73
2021/08/10 03:16:15;;;;;;;3.60;3.20;;;16.10;99.90;;;;;;5077828;28;20516;-73
2021/08/10 03:18:45;;;;;;;3.57;3.27;;;16.00;99.90;;;;;;5077503;28;20914;-74
2021/08/10 03:21:12;;;;;;;3.90;3.33;;;16.00;99.90;;;;;;5077587;28;20458;-73
2021/08/10 03:23:41;;;;;;;5.93;3.30;;;15.90;99.90;;;;;;5078044;28;20454;-74
2021/08/10 03:26:09;;;;;;;5.10;3.37;;;15.90;99.90;;;;;;5077693;28;20460;-74
2021/08/10 03:28:41;;;;;;;4.60;3.27;;;15.90;99.90;;;;;;5077724;28;20469;-74
2021/08/10 03:31:09;;;;;;;4.50;3.70;;;16.00;99.90;;;;;;5079721;28;20537;-73
2021/08/10 03:33:36;;;;;;;5.50;3.80;;;16.00;99.90;;;;;;5090814;28;20464;-73
2021/08/10 03:36:05;;;;;;;4.20;3.10;;;16.00;99.90;;;;;;5083828;28;20484;-73
2021/08/10 03:38:33;;;;;;;3.80;3.50;;;16.00;99.90;;;;;;5077481;28;20836;-74
2021/08/10 03:41:00;;;;;;;4.23;3.10;;;16.00;99.90;;;;;;5077134;28;20866;-74
2021/08/10 03:43:29;;;;;;;5.63;3.33;;;16.00;99.90;;;;;;5077128;28;20888;-73
2021/08/10 03:45:58;;;;;;;3.73;3.33;;;16.00;99.90;;;;;;5077427;28;20450;-74
2021/08/10 03:48:25;;;;;;;4.00;2.90;;;16.00;99.90;;;;;;5077074;28;20462;-74
2021/08/10 03:50:53;;;;;;;3.37;3.00;;;16.00;99.90;;;;;;5077247;28;20602;-74
2021/08/10 03:53:21;;;;;;;4.53;3.30;;;16.00;99.90;;;;;;5077234;28;20473;-74
2021/08/10 03:55:51;;;;;;;3.43;3.13;;;16.10;99.90;;;;;;5077209;28;20901;-74
2021/08/10 03:58:22;;;;;;;3.43;3.13;;;16.10;99.90;;;;;;5077006;28;20914;-74
2021/08/10 04:00:50;;;;;;;3.73;3.07;;;16.00;99.90;;;;;;5078036;28;20856;-74
2021/08/10 04:03:19;;;;;;;4.17;3.63;;;16.00;99.90;;;;;;5078742;28;20915;-74
2021/08/10 04:05:49;;;;;;;5.73;3.90;;;16.10;99.90;;;;;;5078471;28;20461;-74
2021/08/10 04:08:17;;;;;;;4.50;3.23;;;16.10;99.90;;;;;;5078281;28;20864;-74
2021/08/10 04:10:45;;;;;;;3.43;2.63;;;16.10;99.90;;;;;;5078313;28;20792;-74
2021/08/10 04:13:12;;;;;;;4.00;3.00;;;16.00;99.90;;;;;;5078350;28;20477;-74
2021/08/10 04:15:43;;;;;;;5.07;3.33;;;16.00;99.90;;;;;;5078837;28;20482;-74
2021/08/10 04:18:13;;;;;;;3.87;3.33;;;16.00;99.90;;;;;;5078249;28;20458;-74
2021/08/10 04:20:41;;;;;;;3.40;3.10;;;16.10;99.90;;;;;;5079978;28;20450;-74
2021/08/10 04:23:08;;;;;;;3.87;2.83;;;16.10;99.90;;;;;;5084020;28;20454;-73
2021/08/10 04:25:35;;;;;;;4.00;3.20;;;16.10;99.90;;;;;;5086584;28;20454;-74
2021/08/10 04:28:02;;;;;;;5.60;3.20;;;16.10;99.90;;;;;;5085535;28;20461;-73
2021/08/10 04:30:28;;;;;;;5.33;3.37;;;16.10;99.90;;;;;;5084758;28;20763;-73
2021/08/10 04:32:55;;;;;;;4.43;3.30;;;16.10;99.90;;;;;;5086382;28;20473;-73
2021/08/10 04:35:22;;;;;;;4.40;3.50;;;16.10;99.90;;;;;;5084748;28;20474;-73
2021/08/10 04:37:51;;;;;;;4.83;3.30;;;16.10;99.90;;;;;;5082581;28;20465;-74
2021/08/10 04:40:17;;;;;;;4.10;3.70;;;16.10;99.90;;;;;;5081097;28;20497;-73
2021/08/10 04:42:44;;;;;;;4.53;3.33;;;16.20;99.90;;;;;;5080687;28;20458;-73
2021/08/10 04:45:12;;;;;;;4.40;3.27;;;16.10;99.90;;;;;;5080177;28;20450;-73
2021/08/10 04:47:38;;;;;;;3.33;3.10;;;16.10;99.90;;;;;;5077054;28;20462;-74
2021/08/10 04:50:06;;;;;;;4.90;3.30;;;16.10;99.90;;;;;;5076405;28;20466;-74
2021/08/10 04:52:33;;;;;;;3.43;3.10;;;16.10;99.90;;;;;;5075890;28;20464;-74
2021/08/10 04:55:02;;;;;;;6.07;3.77;;;16.20;99.90;;;;;;5076460;28;20486;-73
2021/08/10 04:57:28;;;;;;;4.03;3.40;;;16.20;99.90;;;;;;5076179;28;20454;-73
2021/08/10 04:59:55;;;;;;;3.90;3.13;;;16.20;99.90;;;;;;5075909;28;20499;-73
2021/08/10 05:02:22;;;;;;;4.07;3.10;;;16.30;99.90;;;;;;5075956;28;20454;-74
2021/08/10 05:04:48;;;;;;;3.80;3.37;;;16.30;99.90;;;;;;5075704;28;20469;-74
2021/08/10 05:07:15;;;;;;;4.13;3.40;;;16.40;99.90;;;;;;5075674;28;20450;-74
2021/08/10 05:09:42;;;;;;;3.90;3.47;;;16.40;99.90;;;;;;5075541;28;20462;-74
2021/08/10 05:12:10;;;;;;;3.80;3.10;;;16.40;99.90;;;;;;5075767;28;20790;-74
2021/08/10 05:14:37;;;;;;;3.80;3.23;;;16.40;99.90;;;;;;5076192;28;20527;-74
2021/08/10 05:17:05;;;;;;;3.63;3.10;;;16.50;99.90;;;;;;5075515;28;20477;-74
2021/08/10 05:19:31;;;;;;;3.90;3.53;;;16.50;99.90;;;;;;5075082;28;20458;-74
2021/08/10 05:21:58;;;;;;;3.90;3.50;;;16.60;99.90;;;;;;5075286;28;20434;-74
2021/08/10 05:24:25;;;;;;;5.13;3.37;;;16.60;99.90;;;;;;5075094;28;20495;-74
2021/08/10 05:26:52;;;;;;;5.60;3.57;;;16.70;99.90;;;;;;5075497;28;20461;-75
2021/08/10 05:29:20;;;;;;;6.00;3.63;;;16.70;99.90;;;;;;5075967;28;20468;-74
2021/08/10 05:31:46;;;;;;;4.67;4.20;;;16.70;99.90;;;;;;5075318;28;20450;-74
2021/08/10 05:34:13;;;;;;;6.10;3.67;;;16.70;99.90;;;;;;5074921;28;20791;-74
2021/08/10 05:36:40;;;;;;;4.03;3.43;;;16.80;99.90;;;;;;5074738;28;20478;-74
2021/08/10 05:39:07;;;;;;;4.00;3.70;;;16.80;99.90;;;;;;5074839;28;20462;-74
2021/08/10 05:41:33;;;;;;;4.10;3.57;;;16.90;99.90;;;;;;5074929;28;20891;-74
2021/08/10 05:44:00;;;;;;;4.80;4.00;;;17.00;99.90;;;;;;5074601;28;20465;-74
2021/08/10 05:46:28;;;;;;;4.97;3.90;;;17.00;99.90;;;;;;5075040;28;20458;-74
2021/08/10 05:48:55;;;;;;;8.13;4.80;;;17.10;99.90;;;;;;5075229;28;20545;-74
2021/08/10 05:51:22;;;;;;;4.47;3.80;;;17.10;99.90;;;;;;5075089;28;20458;-74
2021/08/10 05:53:48;;;;;;;4.60;4.17;;;17.10;99.90;;;;;;5074465;28;20485;-74
2021/08/10 05:56:15;;;;;;;4.20;3.60;;;17.10;99.90;;;;;;5074233;28;20474;-74
2021/08/10 05:58:42;;;;;;;5.07;4.00;;;17.20;99.90;;;;;;5074456;28;20458;-74
2021/08/10 06:01:09;;;;;;;4.33;3.77;;;17.20;99.90;;;;;;5074755;28;20466;-75
2021/08/10 06:03:37;;;;;;;4.17;3.80;;;17.20;99.90;;;;;;5074664;28;20454;-75
2021/08/10 06:06:04;;;;;;;5.13;3.50;;;17.20;99.90;;;;;;5074200;28;20530;-73
2021/08/10 06:08:30;;;;;;;4.90;4.07;;;17.30;99.90;;;;;;5074620;28;20468;-74
2021/08/10 06:10:57;;;;;;;5.90;3.70;;;17.40;99.90;;;;;;5074683;28;20757;-75
2021/08/10 06:13:24;;;;;;;4.47;4.03;;;17.50;99.90;;;;;;5074654;28;20761;-75
2021/08/10 06:15:51;;;;;;;5.57;3.70;;;17.50;99.90;;;;;;5074702;28;20510;-74
2021/08/10 06:18:17;;;;;;;6.13;3.30;;;17.60;99.90;;;;;;5074868;28;20765;-74
2021/08/10 06:20:45;;;;;;;5.20;3.97;;;17.60;99.90;;;;;;5075200;28;20478;-74
2021/08/10 06:23:13;;;;;;;7.53;3.83;;;17.70;99.90;;;;;;5074640;28;20546;-73
2021/08/10 06:25:40;;;;;;;3.83;3.53;;;17.70;99.90;;;;;;5074509;28;20467;-73
2021/08/10 06:28:06;;;;;;;9.80;3.87;;;17.80;99.90;;;;;;5074466;28;20454;-74
2021/08/10 06:30:33;;;;;;;4.17;3.50;;;17.90;99.90;;;;;;5074612;28;20458;-74
2021/08/10 06:33:00;;;;;;;7.03;3.47;;;17.90;99.90;;;;;;5074221;28;20462;-74
2021/08/10 06:35:29;;;;;;;3.93;3.57;;;18.00;99.90;;;;;;5077157;28;20572;-73
2021/08/10 06:37:57;;;;;;;3.83;3.40;;;18.10;99.90;;;;;;5077931;28;20458;-75
2021/08/10 06:40:24;;;;;;;7.70;6.27;;;18.20;99.90;;;;;;5078753;28;20486;-74
2021/08/10 06:42:50;;;;;;;8.00;4.00;;;18.40;99.90;;;;;;5078520;28;20458;-74
2021/08/10 06:45:17;;;;;;;4.03;3.50;;;18.50;99.90;;;;;;5078999;28;20458;-74
2021/08/10 06:47:44;;;;;;;3.80;3.50;;;18.60;99.90;;;;;;5079158;28;20454;-75
2021/08/10 06:50:11;;;;;;;4.03;2.87;;;18.70;99.90;;;;;;5079245;28;20489;-75
2021/08/10 06:52:38;;;;;;;4.90;3.90;;;18.90;99.90;;;;;;5079248;28;20465;-74
2021/08/10 06:55:07;;;;;;;5.70;3.07;;;19.00;99.90;;;;;;5079545;28;20778;-74
2021/08/10 06:57:34;;;;;;;3.13;2.70;;;19.20;99.90;;;;;;5080908;28;20461;-74
2021/08/10 07:00:01;;;;;;;4.50;4.10;;;19.40;99.90;;;;;;5078986;28;20536;-74
2021/08/10 07:02:28;;;;;;;9.57;3.27;;;19.60;99.90;;;;;;5078065;28;20465;-74
2021/08/10 07:04:54;;;;;;;3.67;2.70;;;19.80;99.90;;;;;;5077957;28;20453;-75
2021/08/10 07:07:21;;;;;;;3.90;3.10;;;20.00;99.90;;;;;;5077992;28;20446;-75
2021/08/10 07:09:48;;;;;;;4.80;3.10;;;20.10;99.90;;;;;;5078065;28;20457;-75
2021/08/10 07:12:16;;;;;;;4.60;2.27;;;20.20;99.90;;;;;;5077992;28;20457;-75
2021/08/10 07:14:43;;;;;;;3.60;2.70;;;20.30;99.90;;;;;;5078796;28;20457;-75
2021/08/10 07:17:10;;;;;;;4.00;2.80;;;20.30;99.90;;;;;;5078253;28;20486;-75
2021/08/10 07:19:36;;;;;;;4.07;2.90;;;20.40;99.90;;;;;;5077783;28;20458;-75
2021/08/10 07:22:03;;;;;;;3.93;2.63;;;20.40;99.90;;;;;;5077612;28;20530;-75
2021/08/10 07:24:30;;;;;;;3.23;2.93;;;20.50;99.90;;;;;;5077970;28;20808;-74
2021/08/10 07:26:57;;;;;;;2.53;1.90;;;20.60;99.90;;;;;;5077894;28;20450;-74
2021/08/10 07:29:25;;;;;;;4.07;2.83;;;20.60;99.90;;;;;;5077845;28;20580;-74
2021/08/10 07:31:52;;;;;;;3.23;2.90;;;20.70;99.90;;;;;;5077294;28;20750;-75
2021/08/10 07:34:18;;;;;;;5.57;2.70;;;20.70;99.90;;;;;;5077496;28;20458;-74
2021/08/10 07:36:45;;;;;;;3.50;2.60;;;20.70;99.90;;;;;;5077456;28;20488;-74
2021/08/10 07:39:12;;;;;;;3.27;2.60;;;20.70;99.90;;;;;;5077219;28;20812;-74
2021/08/10 07:41:39;;;;;;;4.13;3.03;;;20.70;99.90;;;;;;5078063;28;20449;-74
2021/08/10 07:44:06;;;;;;;7.00;2.30;;;20.70;99.90;;;;;;5077374;28;20462;-74
2021/08/10 07:46:34;;;;;;;4.50;2.30;;;20.80;99.90;;;;;;5076569;28;20545;-73
2021/08/10 07:49:01;;;;;;;3.90;2.57;;;20.70;99.90;;;;;;5077168;28;20782;-74
2021/08/10 07:51:28;;;;;;;4.13;2.37;;;20.70;99.90;;;;;;5076854;28;20450;-74
2021/08/10 07:53:55;;;;;;;3.17;2.27;;;20.60;99.90;;;;;;5076950;28;20473;-75
2021/08/10 07:56:21;;;;;;;5.10;2.37;;;20.60;99.90;;;;;;5077080;28;20481;-75
2021/08/10 07:58:48;;;;;;;20.33;5.00;;;20.60;99.90;;;;;;5077025;28;20462;-74
2021/08/10 08:01:15;;;;;;;2.97;2.77;;;20.60;99.90;;;;;;5077012;28;20937;-75
2021/08/10 08:03:43;;;;;;;3.80;2.30;;;20.70;99.90;;;;;;5076839;28;20465;-76
2021/08/10 08:06:10;;;;;;;7.40;4.90;;;20.70;99.90;;;;;;5077072;28;20454;-75
2021/08/10 08:08:38;;;;;;;8.37;2.53;;;20.80;99.90;;;;;;5076889;28;20469;-76
2021/08/10 08:11:05;;;;;;;3.80;2.40;;;20.80;99.90;;;;;;5076467;28;20462;-73
2021/08/10 08:13:32;;;;;;;4.07;2.60;;;20.80;99.90;;;;;;5076733;28;20454;-74
2021/08/10 08:15:58;;;;;;;4.50;3.07;;;20.80;99.90;;;;;;5076259;28;20914;-75
2021/08/10 08:18:25;;;;;;;4.60;2.57;;;20.70;99.90;;;;;;5076803;28;20455;-75
2021/08/10 08:20:54;;;;;;;3.20;2.10;;;20.70;99.90;;;;;;5076734;28;20465;-74
2021/08/10 08:23:25;;;;;;;3.57;2.37;;;20.70;99.90;;;;;;5076782;28;20458;-74
2021/08/10 08:25:52;;;;;;;3.10;2.43;;;20.70;99.90;;;;;;5076431;28;20439;-75
2021/08/10 08:28:19;;;;;;;8.20;3.80;;;20.80;99.90;;;;;;5077664;28;20527;-74
2021/08/10 08:30:46;;;;;;;9.80;4.27;;;20.80;99.90;;;;;;5077227;28;20469;-74
2021/08/10 08:33:13;;;;;;;2.90;2.50;;;20.80;99.90;;;;;;5076991;28;20465;-74
2021/08/10 08:35:40;;;;;;;6.77;3.00;;;20.90;99.90;;;;;;5076924;28;20458;-75
2021/08/10 08:38:09;;;;;;;5.20;3.40;;;21.00;99.90;;;;;;5080389;28;20450;-74
2021/08/10 08:40:38;;;;;;;5.20;2.87;;;21.00;99.90;;;;;;5081261;28;20778;-75
2021/08/10 08:43:06;;;;;;;3.00;2.53;;;21.00;99.90;;;;;;5083280;28;20469;-74
2021/08/10 08:45:33;;;;;;;7.97;2.77;;;21.00;99.90;;;;;;5085561;28;20458;-75
2021/08/10 08:48:03;;;;;;;4.63;2.40;;;21.10;99.90;;;;;;5083821;28;20454;-75
2021/08/10 08:50:33;;;;;;;4.37;2.93;;;21.10;99.90;;;;;;5080754;28;20458;-74
2021/08/10 08:53:03;;;;;;;5.90;3.80;;;21.20;99.90;;;;;;5080564;28;20469;-74
2021/08/10 08:55:32;;;;;;;3.17;2.87;;;21.30;99.90;;;;;;5080466;28;20462;-74
2021/08/10 08:58:01;;;;;;;4.27;2.70;;;21.50;99.90;;;;;;5085458;28;20475;-73
2021/08/10 09:00:27;;;;;;;8.60;3.10;;;21.60;99.90;;;;;;5086278;28;20460;-74
2021/08/10 09:02:54;;;;;;;6.60;2.80;;;21.60;99.90;;;;;;5089594;28;20461;-74
2021/08/10 09:05:21;;;;;;;4.47;2.73;;;21.80;99.90;;;;;;5082767;28;20480;-74
2021/08/10 09:07:48;;;;;;;3.00;2.40;;;21.90;99.90;;;;;;5079683;28;20480;-74
2021/08/10 09:10:17;;;;;;;5.40;2.70;;;22.00;99.90;;;;;;5081882;28;20546;-74
2021/08/10 09:12:48;;;;;;;3.83;2.80;;;22.00;99.90;;;;;;5075866;28;20905;-74
2021/08/10 09:15:31;;;;;;;4.17;3.00;;;22.00;99.90;;;;;;5076167;28;20481;-75
2021/08/10 09:18:08;;;;;;;5.10;2.70;;;21.90;99.90;;;;;;5075638;28;20466;-74
2021/08/10 09:20:34;;;;;;;4.93;2.70;;;21.90;99.90;;;;;;5075579;28;20442;-74
2021/08/10 09:23:01;;;;;;;7.00;2.40;;;21.90;99.90;;;;;;5075577;28;20561;-74
2021/08/10 09:25:29;;;;;;;3.73;2.67;;;21.90;99.90;;;;;;5075098;28;20457;-74
2021/08/10 09:28:06;;;;;;;8.57;2.83;;;21.90;99.90;;;;;;5075238;28;20450;-74
2021/08/10 09:30:34;;;;;;;4.83;2.50;;;21.90;99.90;;;;;;5075323;28;20532;-74
2021/08/10 09:33:02;;;;;;;3.20;2.50;;;22.00;99.90;;;;;;5075360;28;20458;-74
2021/08/10 09:35:34;;;;;;;6.33;2.60;;;22.10;99.90;;;;;;5075183;28;20454;-74
2021/08/10 09:38:07;;;;;;;6.00;3.10;;;22.30;99.90;;;;;;5074835;28;20482;-75
2021/08/10 09:40:35;;;;;;;4.67;3.00;;;22.30;99.90;;;;;;5074528;28;20493;-75
2021/08/10 09:43:25;;;;;;;3.30;2.47;;;22.50;99.90;;;;;;5075376;28;20458;-75
2021/08/10 09:46:06;;;;;;;4.00;2.37;;;22.60;99.90;;;;;;5074982;28;20478;-75
2021/08/10 09:48:35;;;;;;;6.00;3.23;;;22.70;99.90;;;;;;5074759;28;20544;-75
2021/08/10 09:51:13;;;;;;;3.67;2.60;;;22.70;99.90;;;;;;5075013;28;20458;-74
2021/08/10 09:53:41;;;;;;;6.30;2.67;;;22.80;99.90;;;;;;5075011;28;20955;-74
2021/08/10 09:56:08;;;;;;;4.70;2.63;;;22.90;99.90;;;;;;5074258;28;20466;-74
2021/08/10 09:58:57;;;;;;;3.53;2.30;;;22.90;99.90;;;;;;5075061;28;20785;-74
2021/08/10 10:01:34;;;;;;;4.37;2.27;;;22.90;99.90;;;;;;5066094;28;20486;-74
2021/08/10 10:04:19;;;;;;;3.53;2.10;;;22.80;99.90;;;;;;5074049;28;20445;-75
2021/08/10 10:06:47;;;;;;;3.20;1.93;;;22.90;99.90;;;;;;5074417;28;20484;-74
2021/08/10 10:09:15;;;;;;;3.43;2.57;;;22.90;99.90;;;;;;5074012;28;20454;-75
2021/08/10 10:11:43;;;;;;;4.47;2.20;;;22.90;99.90;;;;;;5074591;28;20457;-75
2021/08/10 10:14:12;;;;;;;2.20;2.00;;;23.00;99.90;;;;;;5074930;28;20518;-75
2021/08/10 10:16:42;;;;;;;5.83;2.90;;;23.00;99.90;;;;;;5075260;28;20929;-75
2021/08/10 10:19:11;;;;;;;4.27;2.57;;;23.00;99.90;;;;;;5074127;28;20512;-75
2021/08/10 10:21:38;;;;;;;4.40;2.57;;;23.10;99.90;;;;;;5074477;28;20945;-74
2021/08/10 10:24:10;;;;;;;4.70;2.03;;;23.10;99.90;;;;;;5074475;28;20462;-75
2021/08/10 10:26:39;;;;;;;4.57;2.53;;;23.00;99.90;;;;;;5074186;28;20438;-76
2021/08/10 10:29:07;;;;;;;3.40;2.00;;;22.90;99.90;;;;;;5074339;28;20450;-75
2021/08/10 10:31:35;;;;;;;5.87;2.00;;;22.90;99.90;;;;;;5074217;28;20458;-75
2021/08/10 10:34:02;;;;;;;6.40;1.97;;;22.80;99.90;;;;;;5073910;28;20501;-75
2021/08/10 10:36:29;;;;;;;6.00;2.13;;;22.80;99.90;;;;;;5073886;28;20458;-74
2021/08/10 10:38:59;;;;;;;4.77;2.60;;;22.80;99.90;;;;;;5073699;28;20462;-75
2021/08/10 10:41:27;;;;;;;4.40;2.10;;;22.80;99.90;;;;;;5074450;28;20439;-75
2021/08/10 10:43:54;;;;;;;3.33;2.10;;;22.80;99.90;;;;;;5074299;28;20450;-75
2021/08/10 10:46:30;;;;;;;5.60;2.20;;;22.90;99.90;;;;;;5074126;28;20454;-75
2021/08/10 10:48:59;;;;;;;2.93;2.10;;;23.00;99.90;;;;;;5073955;28;20449;-74
2021/08/10 10:51:29;;;;;;;2.40;2.00;;;23.00;99.90;;;;;;5074282;28;20882;-75
2021/08/10 10:54:22;;;;;;;2.80;1.97;;;23.00;99.90;;;;;;5074193;28;20537;-75
2021/08/10 10:56:50;;;;;;;3.47;2.17;;;22.80;99.90;;;;;;5073925;28;20477;-75
2021/08/10 10:59:23;;;;;;;3.07;2.37;;;22.70;99.90;;;;;;5073902;28;20454;-75
2021/08/10 11:01:50;;;;;;;5.93;2.70;;;22.60;99.90;;;;;;5074333;28;20530;-74
2021/08/10 11:04:18;;;;;;;3.80;2.13;;;22.60;99.90;;;;;;5074016;28;20453;-75
2021/08/10 11:06:46;;;;;;;3.53;2.00;;;22.50;99.90;;;;;;5074244;28;20572;-75
2021/08/10 11:09:57;;;;;;;4.97;2.20;;;22.40;99.90;;;;;;5073734;28;20460;-76
2021/08/10 11:12:41;;;;;;;5.60;2.67;;;22.40;99.90;;;;;;5073706;28;20489;-75
2021/08/10 11:15:09;;;;;;;2.80;2.27;;;22.40;99.90;;;;;;5074206;28;20772;-75
2021/08/10 11:17:36;;;;;;;4.93;2.47;;;22.30;99.90;;;;;;5074148;28;20482;-75
2021/08/10 11:20:22;;;;;;;3.87;2.47;;;22.30;99.90;;;;;;5073983;28;20545;-75
2021/08/10 11:22:49;;;;;;;2.40;2.20;;;22.30;99.90;;;;;;5077707;28;20499;-74
2021/08/10 11:25:23;;;;;;;2.23;2.03;;;22.40;99.90;;;;;;5077687;28;20923;-75
2021/08/10 11:27:50;;;;;;;2.80;2.07;;;22.60;99.90;;;;;;5077640;28;20545;-75
2021/08/10 11:30:52;;;;;;;2.93;2.10;;;22.90;99.90;;;;;;5077335;28;20453;-75
2021/08/10 11:33:41;;;;;;;2.90;2.40;;;23.10;99.90;;;;;;5072434;28;20453;-75
2021/08/10 11:36:26;;;;;;;4.33;3.10;;;23.50;99.90;;;;;;5076706;28;20979;-75
2021/08/10 11:39:09;;;;;;;2.43;1.97;;;24.00;99.90;;;;;;5076712;28;20482;-74
2021/08/10 11:41:37;;;;;;;8.10;2.40;;;24.50;99.90;;;;;;5079401;28;20465;-74
2021/08/10 11:44:05;;;;;;;3.37;1.80;;;24.80;99.90;;;;;;5079069;28;20903;-75
2021/08/10 11:46:34;;;;;;;3.37;1.80;;;24.90;99.90;;;;;;5077576;28;20454;-74
2021/08/10 11:49:02;;;;;;;4.70;2.90;;;24.80;99.90;;;;;;5076948;28;20454;-74
2021/08/10 11:51:35;;;;;;;3.30;2.70;;;24.60;99.90;;;;;;5076861;28;20458;-75
2021/08/10 11:54:08;;;;;;;6.47;2.40;;;24.60;99.90;;;;;;5077305;28;20454;-74
2021/08/10 11:56:37;;;;;;;3.00;2.40;;;24.40;99.90;;;;;;5077032;28;20461;-73
2021/08/10 11:59:05;;;;;;;2.97;2.00;;;24.20;99.90;;;;;;5076721;28;20480;-74
2021/08/10 12:01:37;;;;;;;4.20;2.50;;;24.00;99.90;;;;;;5076544;28;20511;-74
2021/08/10 12:04:11;;;;;;;3.13;2.13;;;23.90;99.90;;;;;;5077786;28;20442;-76
2021/08/10 12:06:40;;;;;;;3.87;2.07;;;23.70;99.90;;;;;;5077409;28;20738;-74
2021/08/10 12:09:08;;;;;;;5.50;2.30;;;23.60;99.90;;;;;;5077224;28;20766;-75
2021/08/10 12:11:35;;;;;;;3.47;2.27;;;23.40;99.90;;;;;;5077570;28;20472;-75
2021/08/10 12:14:12;;;;;;;8.03;2.83;;;23.30;99.90;;;;;;5076324;28;20457;-75
2021/08/10 12:16:39;;;;;;;5.40;2.83;;;23.30;99.90;;;;;;5076795;28;20442;-75
2021/08/10 12:19:06;;;;;;;2.60;2.40;;;23.30;99.90;;;;;;5076564;28;20805;-76
2021/08/10 12:21:44;;;;;;;5.33;2.63;;;23.40;99.90;;;;;;5076712;28;20474;-74
2021/08/10 12:24:26;;;;;;;2.43;2.23;;;23.40;99.90;;;;;;5077101;28;20465;-74
2021/08/10 12:26:53;;;;;;;4.87;2.90;;;23.40;99.90;;;;;;5077148;28;20512;-75
2021/08/10 12:29:20;;;;;;;2.87;2.57;;;23.30;99.90;;;;;;5077235;28;20454;-75
2021/08/10 12:31:47;;;;;;;4.53;2.70;;;23.30;99.90;;;;;;5075988;28;20462;-74
2021/08/10 12:34:15;;;;;;;3.23;2.30;;;23.30;99.90;;;;;;5076302;28;20476;-74
2021/08/10 12:36:53;;;;;;;2.60;2.40;;;23.40;99.90;;;;;;5076522;28;20461;-74
2021/08/10 12:39:20;;;;;;;5.70;2.40;;;23.40;99.90;;;;;;5076525;28;20496;-74
2021/08/10 12:41:47;;;;;;;4.57;2.47;;;23.50;99.90;;;;;;5076298;28;20780;-74
2021/08/10 12:44:14;;;;;;;3.07;2.40;;;23.80;99.90;;;;;;5076034;28;20458;-74
2021/08/10 12:46:41;;;;;;;3.40;2.40;;;24.50;99.90;;;;;;5075751;28;20465;-74
2021/08/10 12:49:13;;;;;;;3.87;2.50;;;25.40;99.90;;;;;;5076139;28;20832;-74
2021/08/10 12:51:55;;;;;;;3.30;2.60;;;25.80;99.90;;;;;;5075496;28;20886;-74
2021/08/10 12:54:24;;;;;;;2.20;2.00;;;26.00;99.90;;;;;;5075933;28;20468;-74
2021/08/10 12:56:51;;;;;;;3.50;2.20;;;26.80;99.90;;;;;;5075714;28;20472;-75